Time;durP1;ratioP1;P1;durP2;ratioP2;P2;SDS_P1;SDS_P2;PMS_P1;PMS_P2;Temp;Humidity;BMP_temperature;BMP_pressure;BME280_temperature;BME280_humidity;BME280_pressure;Samples;Min_cycle;Max_cycle;Signal;HPM_P1;HPM_P2
2022/09/25 00:01:17;;;;;;;27.37;15.07;;;;;;;;;;5031713;28;20418;-43
2022/09/25 00:03:43;;;;;;;24.53;16.20;;;;;;;;;;5044123;28;20450;-43
2022/09/25 00:06:20;;;;;;;26.13;14.20;;;;;;;;;;5050960;28;20813;-43
2022/09/25 00:08:46;;;;;;;23.70;12.60;;;;;;;;;;5039299;28;20420;-43
2022/09/25 00:11:23;;;;;;;24.30;12.77;;;;;;;;;;5031704;28;20398;-43
2022/09/25 00:13:49;;;;;;;23.60;13.27;;;;;;;;;;5044773;28;20423;-45
2022/09/25 00:16:20;;;;;;;23.83;13.17;;;;;;;;;;5051026;28;20489;-45
2022/09/25 00:21:32;;;;;;;21.20;12.07;;;;;;;;;;5031969;28;20418;-43
2022/09/25 00:24:02;;;;;;;18.83;11.83;;;;;;;;;;5045601;28;20789;-43
2022/09/25 00:26:28;;;;;;;22.13;12.70;;;;;;;;;;5050845;28;20470;-43
2022/09/25 00:28:55;;;;;;;17.70;11.10;;;;;;;;;;5038056;28;20425;-44
2022/09/25 00:31:24;;;;;;;16.00;10.87;;;;;;;;;;5048577;28;20448;-43
2022/09/25 00:33:51;;;;;;;16.73;11.07;;;;;;;;;;5039784;28;20427;-43
2022/09/25 00:36:17;;;;;;;16.47;10.60;;;;;;;;;;5030963;28;20406;-43
2022/09/25 00:38:45;;;;;;;17.37;11.60;;;;;;;;;;5041715;28;20448;-44
2022/09/25 00:41:11;;;;;;;19.67;11.43;;;;;;;;;;5051310;28;20534;-43
2022/09/25 00:43:39;;;;;;;13.27;10.00;;;;;;;;;;5046635;28;20748;-43
2022/09/25 00:46:18;;;;;;;17.27;10.33;;;;;;;;;;5045938;28;20471;-43
2022/09/25 00:48:48;;;;;;;14.70;9.73;;;;;;;;;;5049133;28;20916;-45
2022/09/25 00:51:14;;;;;;;13.00;8.37;;;;;;;;;;5046187;28;20444;-44
2022/09/25 00:53:40;;;;;;;16.97;10.40;;;;;;;;;;5043520;28;20419;-45
2022/09/25 00:56:06;;;;;;;13.30;8.60;;;;;;;;;;5052100;28;20409;-45
2022/09/25 00:58:34;;;;;;;13.27;9.30;;;;;;;;;;5050003;28;20433;-46
2022/09/25 01:01:00;;;;;;;21.20;9.97;;;;;;;;;;5035179;28;20714;-43
2022/09/25 01:03:26;;;;;;;19.80;9.93;;;;;;;;;;5039211;28;20569;-43
2022/09/25 01:05:54;;;;;;;11.17;8.90;;;;;;;;;;5054576;28;20467;-43
2022/09/25 01:08:22;;;;;;;15.63;9.40;;;;;;;;;;5052425;28;20441;-43
2022/09/25 01:10:49;;;;;;;19.47;10.70;;;;;;;;;;5034936;28;20401;-43
2022/09/25 01:13:15;;;;;;;12.90;8.37;;;;;;;;;;5035819;28;20777;-43
2022/09/25 01:15:57;;;;;;;20.90;9.70;;;;;;;;;;5054462;28;21104;-44
2022/09/25 01:18:33;;;;;;;14.63;9.40;;;;;;;;;;5051985;28;20420;-43
2022/09/25 01:21:06;;;;;;;14.73;8.63;;;;;;;;;;5034616;28;20417;-43
2022/09/25 01:23:48;;;;;;;14.13;8.50;;;;;;;;;;5037906;28;20806;-42
2022/09/25 01:26:14;;;;;;;10.23;8.00;;;;;;;;;;5054190;28;20462;-46
2022/09/25 01:28:46;;;;;;;15.53;8.70;;;;;;;;;;5049386;28;20813;-43
2022/09/25 01:31:17;;;;;;;12.30;8.60;;;;;;;;;;5034506;28;20416;-43
2022/09/25 01:33:48;;;;;;;11.10;8.07;;;;;;;;;;5039480;28;20423;-43
2022/09/25 01:36:23;;;;;;;10.60;7.43;;;;;;;;;;5054115;28;20423;-43
2022/09/25 01:38:55;;;;;;;12.57;8.37;;;;;;;;;;5048793;28;20909;-45
2022/09/25 01:41:37;;;;;;;12.60;7.00;;;;;;;;;;5034027;28;20467;-43
2022/09/25 01:44:06;;;;;;;14.00;6.97;;;;;;;;;;5041091;28;20416;-43
2022/09/25 01:46:48;;;;;;;13.37;6.80;;;;;;;;;;5053765;28;20526;-43
2022/09/25 01:49:29;;;;;;;9.90;5.73;;;;;;;;;;5052803;28;20757;-43
2022/09/25 01:51:56;;;;;;;7.70;5.97;;;;;;;;;;5053918;28;20491;-43
2022/09/25 01:54:24;;;;;;;10.33;6.30;;;;;;;;;;5044400;28;20778;-43
2022/09/25 01:56:56;;;;;;;14.00;5.80;;;;;;;;;;5033663;28;20897;-43
2022/09/25 01:59:33;;;;;;;9.60;6.13;;;;;;;;;;5043778;28;20408;-43
2022/09/25 02:02:00;;;;;;;8.87;5.40;;;;;;;;;;5053720;28;20415;-43
2022/09/25 02:04:35;;;;;;;15.00;5.43;;;;;;;;;;5043690;28;20509;-43
2022/09/25 02:07:03;;;;;;;13.03;5.53;;;;;;;;;;5032599;28;20461;-44
2022/09/25 02:09:37;;;;;;;11.00;6.07;;;;;;;;;;5044556;28;20470;-42
2022/09/25 02:12:11;;;;;;;11.10;5.77;;;;;;;;;;5053613;28;20482;-42
2022/09/25 02:14:47;;;;;;;12.23;5.83;;;;;;;;;;5042278;28;20538;-43
2022/09/25 02:20:30;;;;;;;9.97;5.57;;;;;;;;;;5033150;28;20457;-43
2022/09/25 02:22:51;;;;;;;9.90;5.00;;;;;;;;;;5053516;28;20486;-42
2022/09/25 02:25:21;;;;;;;6.33;4.60;;;;;;;;;;5036314;28;20463;-44
2022/09/25 02:27:47;;;;;;;7.60;5.23;;;;;;;;;;5053087;28;20432;-43
2022/09/25 02:30:14;;;;;;;8.20;4.63;;;;;;;;;;5037687;28;20428;-45
2022/09/25 02:32:40;;;;;;;7.67;4.40;;;;;;;;;;5033251;28;20460;-43
2022/09/25 02:35:06;;;;;;;7.17;4.00;;;;;;;;;;5047341;28;20420;-44
2022/09/25 02:37:31;;;;;;;18.07;4.47;;;;;;;;;;5053040;28;20466;-44
2022/09/25 02:40:00;;;;;;;8.17;4.33;;;;;;;;;;5040728;28;20448;-43
2022/09/25 02:42:29;;;;;;;9.30;4.13;;;;;;;;;;5033143;28;20769;-43
2022/09/25 02:45:14;;;;;;;7.50;4.07;;;;;;;;;;5045401;28;20450;-43
2022/09/25 02:47:59;;;;;;;13.17;3.40;;;;;;;;;;5052835;28;20433;-46
2022/09/25 02:50:44;;;;;;;10.63;3.57;;;;;;;;;;5037029;28;20976;-43
2022/09/25 02:53:10;;;;;;;9.47;3.47;;;;;;;;;;5051088;28;20795;-43
2022/09/25 02:55:51;;;;;;;13.37;4.40;;;;;;;;;;5052972;28;20896;-43
2022/09/25 02:58:29;;;;;;;9.33;3.53;;;;;;;;;;5034862;28;20976;-46
2022/09/25 03:00:56;;;;;;;6.63;3.43;;;;;;;;;;5033143;28;20500;-44
2022/09/25 03:03:23;;;;;;;12.13;4.00;;;;;;;;;;5051366;28;20923;-43
2022/09/25 03:05:50;;;;;;;4.70;3.00;;;;;;;;;;5052317;28;20460;-43
2022/09/25 03:11:02;;;;;;;3.90;2.90;;;;;;;;;;5033154;28;20529;-44
2022/09/25 03:13:32;;;;;;;6.50;3.27;;;;;;;;;;5032872;28;20421;-45
2022/09/25 03:16:19;;;;;;;6.83;3.20;;;;;;;;;;5032535;28;20483;-45
2022/09/25 03:18:45;;;;;;;6.53;3.00;;;;;;;;;;5032503;28;20406;-45
2022/09/25 03:21:11;;;;;;;4.70;2.83;;;;;;;;;;5032629;28;20462;-45
2022/09/25 03:23:37;;;;;;;6.00;2.80;;;;;;;;;;5052436;28;20414;-44
2022/09/25 03:26:03;;;;;;;7.73;2.47;;;;;;;;;;5051742;28;20460;-43
2022/09/25 03:28:29;;;;;;;17.73;4.00;;;;;;;;;;5033344;28;20431;-43
2022/09/25 03:30:57;;;;;;;7.10;2.80;;;;;;;;;;5032590;28;20469;-43
2022/09/25 03:33:23;;;;;;;3.67;2.90;;;;;;;;;;5050261;28;20406;-43
2022/09/25 03:35:59;;;;;;;6.90;3.10;;;;;;;;;;5051812;28;20406;-43
2022/09/25 03:38:24;;;;;;;4.30;2.90;;;;;;;;;;5034178;28;20440;-43
2022/09/25 03:40:50;;;;;;;10.83;3.10;;;;;;;;;;5032293;28;20974;-43
2022/09/25 03:43:16;;;;;;;8.07;2.60;;;;;;;;;;5048766;28;20977;-46
2022/09/25 03:45:42;;;;;;;7.87;3.20;;;;;;;;;;5051925;28;20997;-43
2022/09/25 03:48:08;;;;;;;5.80;2.93;;;;;;;;;;5036151;28;20777;-43
2022/09/25 03:50:34;;;;;;;8.63;2.50;;;;;;;;;;5032286;28;20758;-43
2022/09/25 03:53:00;;;;;;;5.90;2.73;;;;;;;;;;5045245;28;20484;-43
2022/09/25 03:55:26;;;;;;;4.00;2.47;;;;;;;;;;5051669;28;20417;-43
2022/09/25 03:57:52;;;;;;;4.60;3.43;;;;;;;;;;5038378;28;20573;-43
2022/09/25 04:00:18;;;;;;;6.03;2.53;;;;;;;;;;5032151;28;20415;-43
2022/09/25 04:02:44;;;;;;;13.07;2.87;;;;;;;;;;5042391;28;20464;-45
2022/09/25 04:05:10;;;;;;;3.97;2.40;;;;;;;;;;5051626;28;20465;-42
2022/09/25 04:07:37;;;;;;;7.20;2.90;;;;;;;;;;5040695;28;20430;-44
2022/09/25 04:10:03;;;;;;;4.90;2.37;;;;;;;;;;5032255;28;20490;-44
2022/09/25 04:12:29;;;;;;;6.03;2.50;;;;;;;;;;5040152;28;20410;-44
2022/09/25 04:14:55;;;;;;;18.03;3.17;;;;;;;;;;5051796;28;20385;-45
2022/09/25 04:17:21;;;;;;;8.07;2.50;;;;;;;;;;5042946;28;20521;-43
2022/09/25 04:19:48;;;;;;;5.43;3.50;;;;;;;;;;5031739;28;20499;-45
2022/09/25 04:22:14;;;;;;;7.70;2.70;;;;;;;;;;5037783;28;20909;-44
2022/09/25 04:24:49;;;;;;;7.87;2.83;;;;;;;;;;5051874;28;20465;-46
2022/09/25 04:27:17;;;;;;;9.00;3.00;;;;;;;;;;5044161;28;20613;-48
2022/09/25 04:29:43;;;;;;;7.40;3.00;;;;;;;;;;5031924;28;20406;-48
2022/09/25 04:34:54;;;;;;;6.23;2.57;;;;;;;;;;5051295;28;20409;-48
2022/09/25 04:37:25;;;;;;;3.17;2.60;;;;;;;;;;5043207;28;20842;-48
2022/09/25 04:39:50;;;;;;;13.97;2.70;;;;;;;;;;5031556;28;20484;-46
2022/09/25 04:42:16;;;;;;;10.27;3.30;;;;;;;;;;5037996;28;20838;-48
2022/09/25 04:44:42;;;;;;;7.00;2.60;;;;;;;;;;5051303;28;20458;-48
2022/09/25 04:47:08;;;;;;;5.83;2.30;;;;;;;;;;5044927;28;20476;-47
2022/09/25 04:49:36;;;;;;;5.93;2.67;;;;;;;;;;5031394;28;20455;-48
2022/09/25 04:52:02;;;;;;;11.23;2.80;;;;;;;;;;5035320;28;20797;-47
2022/09/25 04:54:28;;;;;;;10.90;2.80;;;;;;;;;;5051173;28;20397;-47
2022/09/25 04:56:54;;;;;;;5.83;2.87;;;;;;;;;;5049067;28;20474;-47
2022/09/25 04:59:20;;;;;;;9.47;2.80;;;;;;;;;;5040096;28;20828;-48
2022/09/25 05:01:47;;;;;;;5.67;2.87;;;;;;;;;;5051422;28;20487;-47
2022/09/25 05:04:15;;;;;;;4.73;2.30;;;;;;;;;;5050556;28;20382;-47
2022/09/25 05:06:41;;;;;;;4.53;2.53;;;;;;;;;;5030616;28;20458;-46
2022/09/25 05:09:06;;;;;;;7.30;3.00;;;;;;;;;;5038327;28;20427;-47
2022/09/25 05:11:32;;;;;;;7.60;2.67;;;;;;;;;;5051073;28;20458;-46
2022/09/25 05:14:00;;;;;;;7.70;3.27;;;;;;;;;;5045497;28;20503;-46
2022/09/25 05:16:27;;;;;;;7.30;2.27;;;;;;;;;;5030519;28;20895;-45
2022/09/25 05:18:53;;;;;;;6.90;3.47;;;;;;;;;;5032208;28;20411;-46
2022/09/25 05:21:19;;;;;;;8.20;3.33;;;;;;;;;;5031363;28;20623;-48
2022/09/25 05:23:45;;;;;;;7.20;3.27;;;;;;;;;;5034600;28;20858;-49
2022/09/25 05:26:11;;;;;;;5.07;2.77;;;;;;;;;;5050390;28;20812;-49
2022/09/25 05:28:37;;;;;;;6.70;2.60;;;;;;;;;;5047829;28;20417;-47
2022/09/25 05:31:04;;;;;;;6.47;2.80;;;;;;;;;;5033755;28;20414;-46
2022/09/25 05:33:34;;;;;;;4.50;2.57;;;;;;;;;;5044455;28;20478;-48
2022/09/25 05:36:03;;;;;;;4.60;2.80;;;;;;;;;;5040120;28;20406;-47
2022/09/25 05:38:32;;;;;;;3.10;2.40;;;;;;;;;;5050796;28;20797;-48
2022/09/25 05:41:02;;;;;;;9.03;3.17;;;;;;;;;;5033768;28;20417;-49
2022/09/25 05:43:28;;;;;;;3.73;2.40;;;;;;;;;;5032883;28;20462;-48
2022/09/25 05:45:54;;;;;;;5.43;3.03;;;;;;;;;;5046841;28;20810;-47
2022/09/25 05:48:20;;;;;;;8.20;3.00;;;;;;;;;;5045135;28;20434;-47
2022/09/25 05:50:56;;;;;;;5.97;3.17;;;;;;;;;;5034454;28;20414;-46
2022/09/25 05:53:22;;;;;;;3.93;2.83;;;;;;;;;;5044159;28;20405;-48
2022/09/25 05:55:49;;;;;;;5.60;2.90;;;;;;;;;;5044352;28;20415;-48
2022/09/25 05:58:15;;;;;;;4.10;2.80;;;;;;;;;;5044999;28;20436;-48
2022/09/25 06:00:41;;;;;;;10.50;3.17;;;;;;;;;;5038743;28;20422;-45
2022/09/25 06:03:07;;;;;;;9.43;2.83;;;;;;;;;;5047041;28;20429;-47
2022/09/25 06:05:34;;;;;;;5.93;3.30;;;;;;;;;;5036635;28;20493;-47
2022/09/25 06:07:59;;;;;;;7.53;3.03;;;;;;;;;;5034636;28;20527;-48
2022/09/25 06:10:25;;;;;;;5.13;2.73;;;;;;;;;;5053387;28;20563;-47
2022/09/25 06:12:54;;;;;;;9.10;3.90;;;;;;;;;;5048480;28;20425;-45
2022/09/25 06:15:22;;;;;;;9.73;2.90;;;;;;;;;;5053245;28;20417;-48
2022/09/25 06:17:48;;;;;;;10.07;3.17;;;;;;;;;;5049164;28;20473;-47
2022/09/25 06:20:14;;;;;;;5.27;2.80;;;;;;;;;;5045419;28;20446;-46
2022/09/25 06:22:40;;;;;;;3.00;2.67;;;;;;;;;;5053576;28;20414;-46
2022/09/25 06:25:06;;;;;;;7.27;5.10;;;;;;;;;;5035075;28;20458;-45
2022/09/25 06:27:32;;;;;;;13.03;6.00;;;;;;;;;;5033203;28;20435;-46
2022/09/25 06:29:58;;;;;;;7.00;3.70;;;;;;;;;;5033778;28;20406;-48
2022/09/25 06:32:24;;;;;;;9.10;3.80;;;;;;;;;;5033646;28;20401;-49
2022/09/25 06:34:50;;;;;;;4.73;3.50;;;;;;;;;;5033476;28;20414;-48
2022/09/25 06:37:16;;;;;;;7.07;4.93;;;;;;;;;;5050900;28;20843;-47
2022/09/25 06:39:42;;;;;;;8.00;7.27;;;;;;;;;;5053321;28;20863;-47
2022/09/25 06:42:08;;;;;;;6.83;5.77;;;;;;;;;;5051577;28;20415;-49
2022/09/25 06:44:34;;;;;;;7.23;3.30;;;;;;;;;;5050489;28;20429;-47
2022/09/25 06:47:00;;;;;;;8.07;4.00;;;;;;;;;;5036451;28;20435;-47
2022/09/25 06:49:26;;;;;;;14.50;3.20;;;;;;;;;;5039298;28;20418;-46
2022/09/25 06:51:53;;;;;;;5.83;2.60;;;;;;;;;;5045698;28;20942;-46
2022/09/25 06:54:19;;;;;;;4.80;3.63;;;;;;;;;;5041947;28;20920;-47
2022/09/25 06:56:48;;;;;;;4.10;2.40;;;;;;;;;;5033350;28;20449;-47
2022/09/25 06:59:14;;;;;;;9.80;2.23;;;;;;;;;;5036725;28;20412;-48
2022/09/25 07:01:40;;;;;;;8.23;2.97;;;;;;;;;;5052894;28;20426;-48
2022/09/25 07:04:06;;;;;;;9.33;3.33;;;;;;;;;;5046368;28;20423;-47
2022/09/25 07:06:33;;;;;;;7.00;3.83;;;;;;;;;;5037930;28;20462;-48
2022/09/25 07:09:02;;;;;;;5.83;2.20;;;;;;;;;;5041563;28;20412;-46
2022/09/25 07:11:30;;;;;;;5.83;2.90;;;;;;;;;;5052851;28;20457;-48
2022/09/25 07:13:56;;;;;;;7.57;2.60;;;;;;;;;;5045880;28;20481;-49
2022/09/25 07:16:23;;;;;;;4.20;3.23;;;;;;;;;;5046907;28;20417;-49
2022/09/25 07:18:50;;;;;;;4.07;2.47;;;;;;;;;;5032780;28;20430;-47
2022/09/25 07:21:17;;;;;;;4.00;2.77;;;;;;;;;;5044571;28;20562;-49
2022/09/25 07:23:43;;;;;;;6.27;2.27;;;;;;;;;;5042517;28;20413;-47
2022/09/25 07:26:13;;;;;;;6.53;2.20;;;;;;;;;;5050374;28;20622;-48
2022/09/25 07:28:40;;;;;;;8.23;3.47;;;;;;;;;;5032518;28;20526;-49
2022/09/25 07:31:25;;;;;;;11.03;2.73;;;;;;;;;;5041190;28;20380;-49
2022/09/25 07:33:51;;;;;;;5.23;4.40;;;;;;;;;;5046693;28;20395;-46
2022/09/25 07:36:17;;;;;;;4.70;2.20;;;;;;;;;;5048610;28;20408;-48
2022/09/25 07:38:44;;;;;;;5.83;3.77;;;;;;;;;;5032443;28;20628;-49
2022/09/25 07:41:11;;;;;;;6.70;4.20;;;;;;;;;;5040890;28;20396;-48
2022/09/25 07:43:37;;;;;;;5.10;2.70;;;;;;;;;;5043793;28;20400;-50
2022/09/25 07:46:04;;;;;;;5.03;2.30;;;;;;;;;;5033029;28;21011;-47
2022/09/25 07:48:30;;;;;;;11.03;2.90;;;;;;;;;;5051786;28;20439;-46
2022/09/25 07:51:03;;;;;;;5.20;1.70;;;;;;;;;;5050356;28;20471;-47
2022/09/25 07:53:29;;;;;;;2.60;1.47;;;;;;;;;;5033711;28;20501;-49
2022/09/25 07:55:57;;;;;;;7.03;2.40;;;;;;;;;;5032970;28;20435;-46
2022/09/25 07:58:23;;;;;;;6.00;2.07;;;;;;;;;;5037593;28;20926;-48
2022/09/25 08:00:48;;;;;;;5.40;2.17;;;;;;;;;;5050119;28;20437;-48
2022/09/25 08:03:14;;;;;;;7.60;2.87;;;;;;;;;;5031606;28;20439;-48
2022/09/25 08:05:40;;;;;;;2.60;1.80;;;;;;;;;;5031228;28;20455;-47
2022/09/25 08:08:07;;;;;;;10.20;2.87;;;;;;;;;;5047440;28;20815;-47
2022/09/25 08:10:33;;;;;;;9.80;3.40;;;;;;;;;;5048758;28;20424;-47
2022/09/25 08:12:59;;;;;;;12.00;4.53;;;;;;;;;;5051636;28;20768;-47
2022/09/25 08:15:25;;;;;;;10.37;2.30;;;;;;;;;;5032008;28;20423;-45
2022/09/25 08:17:51;;;;;;;10.53;2.33;;;;;;;;;;5046567;28;20795;-46
2022/09/25 08:20:17;;;;;;;6.10;2.27;;;;;;;;;;5048366;28;20469;-47
2022/09/25 08:22:43;;;;;;;5.33;1.87;;;;;;;;;;5032840;28;20893;-45
2022/09/25 08:25:10;;;;;;;5.33;1.70;;;;;;;;;;5041262;28;20777;-48
2022/09/25 08:27:39;;;;;;;6.60;1.60;;;;;;;;;;5037832;28;20434;-48
2022/09/25 08:30:06;;;;;;;6.87;2.83;;;;;;;;;;5048095;28;20432;-49
2022/09/25 08:32:33;;;;;;;3.63;1.50;;;;;;;;;;5038447;28;20406;-47
2022/09/25 08:35:00;;;;;;;12.10;2.13;;;;;;;;;;5031682;28;20426;-49
2022/09/25 08:37:26;;;;;;;6.63;1.80;;;;;;;;;;5031990;28;20440;-48
2022/09/25 08:39:52;;;;;;;11.13;2.50;;;;;;;;;;5039046;28;20488;-49
2022/09/25 08:42:28;;;;;;;11.87;2.30;;;;;;;;;;5031440;28;20410;-48
2022/09/25 08:50:28;;;;;;;7.67;1.70;;;;;;;;;;5031857;28;20405;-49
2022/09/25 08:53:16;;;;;;;5.60;1.63;;;;;;;;;;5045916;28;20468;-48
2022/09/25 08:58:41;;;;;;;2.33;1.47;;;;;;;;;;5031109;28;20941;-48
2022/09/25 09:01:10;;;;;;;7.37;1.50;;;;;;;;;;5042301;28;20447;-48
2022/09/25 09:03:42;;;;;;;2.60;1.33;;;;;;;;;;5031124;28;20414;-47
2022/09/25 09:06:12;;;;;;;3.57;1.77;;;;;;;;;;5030935;28;20455;-47
2022/09/25 09:08:39;;;;;;;6.40;1.90;;;;;;;;;;5049026;28;20440;-43
2022/09/25 09:11:08;;;;;;;8.57;1.80;;;;;;;;;;5049494;28;20911;-45
2022/09/25 09:13:36;;;;;;;4.17;1.50;;;;;;;;;;5043404;28;20912;-45
2022/09/25 09:16:07;;;;;;;7.60;1.77;;;;;;;;;;5049318;28;20424;-49
2022/09/25 09:18:37;;;;;;;6.70;2.97;;;;;;;;;;5034430;28;20414;-43
2022/09/25 09:21:10;;;;;;;9.60;1.87;;;;;;;;;;5045877;28;20791;-45
2022/09/25 09:23:41;;;;;;;9.87;2.10;;;;;;;;;;5037586;28;20765;-44
2022/09/25 09:26:15;;;;;;;3.10;1.20;;;;;;;;;;5054004;28;20460;-47
2022/09/25 09:28:41;;;;;;;3.83;1.60;;;;;;;;;;5034542;28;20414;-48
2022/09/25 09:31:10;;;;;;;4.83;1.40;;;;;;;;;;5038124;28;20483;-48
2022/09/25 09:33:38;;;;;;;5.40;1.63;;;;;;;;;;5049024;28;20928;-47
2022/09/25 09:36:07;;;;;;;3.43;1.13;;;;;;;;;;5041136;28;20482;-43
2022/09/25 09:38:52;;;;;;;7.63;1.40;;;;;;;;;;5050486;28;20534;-44
2022/09/25 09:41:21;;;;;;;2.93;1.20;;;;;;;;;;5034300;28;20523;-44
2022/09/25 09:44:00;;;;;;;10.77;1.37;;;;;;;;;;5050781;28;20459;-43
2022/09/25 09:46:39;;;;;;;4.63;1.57;;;;;;;;;;5033979;28;20458;-44
2022/09/25 09:49:05;;;;;;;3.00;1.10;;;;;;;;;;5035329;28;20894;-44
2022/09/25 09:51:34;;;;;;;4.50;1.50;;;;;;;;;;5034210;28;20403;-44
2022/09/25 09:54:06;;;;;;;3.50;1.20;;;;;;;;;;5045479;28;20409;-44
2022/09/25 09:56:35;;;;;;;2.60;1.10;;;;;;;;;;5034368;28;20483;-45
2022/09/25 09:59:03;;;;;;;6.80;1.40;;;;;;;;;;5049940;28;20417;-45
2022/09/25 10:01:34;;;;;;;6.13;1.30;;;;;;;;;;5053680;28;20421;-45
2022/09/25 10:04:20;;;;;;;3.97;1.30;;;;;;;;;;5039450;28;20472;-45
2022/09/25 10:07:18;;;;;;;4.50;1.40;;;;;;;;;;5046873;28;20572;-46
2022/09/25 10:09:45;;;;;;;4.40;1.50;;;;;;;;;;5029992;28;20486;-43
2022/09/25 10:12:32;;;;;;;4.43;1.23;;;;;;;;;;5040261;28;20851;-45
2022/09/25 10:14:58;;;;;;;9.67;1.60;;;;;;;;;;5053240;28;20432;-43
2022/09/25 10:17:24;;;;;;;1.63;1.50;;;;;;;;;;5047360;28;20445;-43
2022/09/25 10:19:54;;;;;;;5.60;1.60;;;;;;;;;;5047112;28;20424;-43
2022/09/25 10:22:24;;;;;;;3.30;1.40;;;;;;;;;;5050732;28;20463;-43
2022/09/25 10:24:50;;;;;;;1.43;1.23;;;;;;;;;;5045160;28;20460;-44
2022/09/25 10:27:19;;;;;;;5.73;1.40;;;;;;;;;;5033191;28;20427;-45
2022/09/25 10:29:45;;;;;;;4.60;1.50;;;;;;;;;;5045753;28;20416;-43
2022/09/25 10:32:11;;;;;;;1.77;1.10;;;;;;;;;;5053404;28;20402;-44
2022/09/25 10:34:39;;;;;;;4.93;1.57;;;;;;;;;;5041126;28;20534;-45
2022/09/25 10:37:19;;;;;;;3.90;1.20;;;;;;;;;;5048865;28;20444;-47
2022/09/25 10:39:59;;;;;;;4.63;1.00;;;;;;;;;;5046215;28;20420;-44
2022/09/25 10:42:34;;;;;;;3.97;1.50;;;;;;;;;;5042963;28;20414;-44
2022/09/25 10:45:00;;;;;;;4.77;1.20;;;;;;;;;;5040237;28;20478;-46
2022/09/25 10:50:13;;;;;;;5.43;1.40;;;;;;;;;;5036107;28;20457;-49
2022/09/25 10:52:58;;;;;;;3.63;1.40;;;;;;;;;;5049449;28;20779;-47
2022/09/25 10:55:27;;;;;;;4.23;1.60;;;;;;;;;;5035951;28;20418;-49
2022/09/25 10:57:57;;;;;;;1.50;1.40;;;;;;;;;;5052612;28;20413;-45
2022/09/25 11:00:24;;;;;;;1.40;1.00;;;;;;;;;;5034168;28;20497;-50
2022/09/25 11:02:52;;;;;;;5.23;1.33;;;;;;;;;;5038725;28;20999;-47
2022/09/25 11:05:20;;;;;;;2.17;1.10;;;;;;;;;;5051838;28;20467;-47
2022/09/25 11:07:54;;;;;;;2.83;1.17;;;;;;;;;;5052500;28;20921;-48
2022/09/25 11:10:25;;;;;;;1.23;1.10;;;;;;;;;;5034854;28;20411;-48
2022/09/25 11:12:51;;;;;;;3.37;1.27;;;;;;;;;;5042949;28;20898;-47
2022/09/25 11:15:22;;;;;;;3.40;1.20;;;;;;;;;;5047049;28;20530;-46
2022/09/25 11:17:53;;;;;;;2.83;1.10;;;;;;;;;;5032886;28;20494;-46
2022/09/25 11:20:20;;;;;;;3.40;1.20;;;;;;;;;;5047797;28;20468;-45
2022/09/25 11:22:55;;;;;;;2.70;1.00;;;;;;;;;;5042684;28;20425;-45
2022/09/25 11:25:31;;;;;;;2.33;1.23;;;;;;;;;;5032550;28;20457;-45
2022/09/25 11:28:03;;;;;;;2.07;1.20;;;;;;;;;;5042984;28;20439;-45
2022/09/25 11:30:38;;;;;;;5.00;1.60;;;;;;;;;;5050951;28;20877;-46
2022/09/25 11:33:10;;;;;;;2.37;1.13;;;;;;;;;;5046201;28;20444;-46
2022/09/25 11:35:45;;;;;;;2.40;1.10;;;;;;;;;;5050455;28;20416;-45
2022/09/25 11:41:11;;;;;;;2.20;2.00;;;;;;;;;;5036711;28;20435;-45
2022/09/25 11:41:21;;;;;;;2.27;0.90;;;;;;;;;;5037543;28;20414;-48
2022/09/25 11:43:50;;;;;;;2.90;1.00;;;;;;;;;;5048339;28;20428;-44
2022/09/25 11:46:30;;;;;;;2.17;1.13;;;;;;;;;;5038813;28;21036;-43
2022/09/25 11:49:09;;;;;;;2.60;1.40;;;;;;;;;;5037811;28;20839;-43
2022/09/25 11:51:35;;;;;;;4.60;1.40;;;;;;;;;;5042428;28;20788;-45
2022/09/25 11:54:12;;;;;;;2.83;1.37;;;;;;;;;;5044254;28;20767;-46
2022/09/25 11:56:38;;;;;;;2.80;1.37;;;;;;;;;;5045779;28;20448;-44
2022/09/25 11:59:30;;;;;;;4.40;1.30;;;;;;;;;;5046454;28;20488;-45
2022/09/25 12:02:03;;;;;;;3.47;1.43;;;;;;;;;;5051033;28;20421;-44
2022/09/25 12:04:32;;;;;;;5.90;1.57;;;;;;;;;;5043628;28;20759;-47
2022/09/25 12:07:05;;;;;;;2.77;1.30;;;;;;;;;;5043831;28;20530;-49
2022/09/25 12:09:34;;;;;;;6.13;1.20;;;;;;;;;;5043701;28;20515;-49
2022/09/25 12:12:09;;;;;;;1.20;1.07;;;;;;;;;;5038855;28;20425;-48
2022/09/25 12:14:35;;;;;;;5.33;1.30;;;;;;;;;;5033439;28;20486;-49
2022/09/25 12:17:17;;;;;;;2.70;1.10;;;;;;;;;;5040503;28;20439;-48
2022/09/25 12:19:46;;;;;;;4.10;1.20;;;;;;;;;;5048960;28;20592;-48
2022/09/25 12:22:38;;;;;;;2.17;0.90;;;;;;;;;;5030472;28;20418;-48
2022/09/25 12:25:15;;;;;;;3.77;1.10;;;;;;;;;;5030954;28;20473;-48
2022/09/25 12:27:59;;;;;;;4.03;1.30;;;;;;;;;;5045251;28;20841;-46
2022/09/25 12:30:30;;;;;;;3.23;1.33;;;;;;;;;;5031421;28;20414;-50
2022/09/25 12:32:59;;;;;;;1.57;0.90;;;;;;;;;;5031996;28;20460;-49
2022/09/25 12:35:34;;;;;;;3.17;1.07;;;;;;;;;;5050960;28;20413;-49
2022/09/25 12:38:05;;;;;;;3.03;0.97;;;;;;;;;;5033606;28;20806;-47
2022/09/25 12:40:50;;;;;;;2.60;1.00;;;;;;;;;;5036138;28;20424;-49
2022/09/25 12:43:32;;;;;;;2.50;1.47;;;;;;;;;;5051073;28;20408;-48
2022/09/25 12:46:02;;;;;;;1.33;1.00;;;;;;;;;;5038872;28;20484;-47
2022/09/25 12:48:36;;;;;;;1.77;1.10;;;;;;;;;;5036583;28;20435;-47
2022/09/25 12:51:11;;;;;;;1.93;1.20;;;;;;;;;;5049051;28;20417;-49
2022/09/25 12:53:44;;;;;;;1.53;0.90;;;;;;;;;;5037252;28;20413;-48
2022/09/25 12:56:12;;;;;;;2.80;1.00;;;;;;;;;;5042943;28;20843;-47
2022/09/25 12:58:58;;;;;;;3.60;1.53;;;;;;;;;;5043195;28;20901;-50
2022/09/25 13:01:24;;;;;;;4.20;1.30;;;;;;;;;;5043855;28;20427;-49
2022/09/25 13:03:56;;;;;;;3.47;1.00;;;;;;;;;;5053190;28;20421;-49
2022/09/25 13:06:37;;;;;;;1.20;1.10;;;;;;;;;;5046410;28;20458;-48
2022/09/25 13:09:12;;;;;;;2.90;1.13;;;;;;;;;;5054800;28;20983;-49
2022/09/25 13:11:44;;;;;;;1.50;1.10;;;;;;;;;;5040529;28;20937;-48
2022/09/25 13:14:26;;;;;;;5.97;0.90;;;;;;;;;;5035180;28;20390;-50
2022/09/25 13:16:52;;;;;;;2.23;1.00;;;;;;;;;;5040752;28;20617;-50
2022/09/25 13:19:29;;;;;;;4.70;1.30;;;;;;;;;;5048205;28;20445;-49
2022/09/25 13:22:19;;;;;;;1.53;1.20;;;;;;;;;;5036998;28;20421;-49
2022/09/25 13:24:55;;;;;;;2.50;1.20;;;;;;;;;;5048939;28;20422;-50
2022/09/25 13:27:22;;;;;;;2.50;1.00;;;;;;;;;;5052587;28;20443;-49
2022/09/25 13:29:55;;;;;;;4.17;1.40;;;;;;;;;;5052245;28;20416;-49
2022/09/25 13:32:22;;;;;;;2.70;1.00;;;;;;;;;;5034679;28;20905;-48
2022/09/25 13:34:51;;;;;;;3.07;1.30;;;;;;;;;;5041678;28;20421;-46
2022/09/25 13:37:17;;;;;;;3.27;1.63;;;;;;;;;;5053821;28;20432;-49
2022/09/25 13:42:39;;;;;;;1.40;1.20;;;;;;;;;;5053501;28;20994;-50
2022/09/25 13:45:24;;;;;;;1.70;1.17;;;;;;;;;;5034472;28;20483;-45
2022/09/25 13:48:01;;;;;;;2.23;1.20;;;;;;;;;;5033987;28;20786;-49
2022/09/25 13:50:31;;;;;;;2.27;1.10;;;;;;;;;;5034476;28;20397;-49
2022/09/25 13:53:16;;;;;;;2.50;1.00;;;;;;;;;;5034111;28;20400;-50
2022/09/25 13:55:42;;;;;;;3.83;1.13;;;;;;;;;;5034243;28;20476;-49
2022/09/25 13:58:19;;;;;;;1.70;1.10;;;;;;;;;;5033848;28;20426;-48
2022/09/25 14:01:01;;;;;;;2.97;1.13;;;;;;;;;;5034158;28;20394;-47
2022/09/25 14:03:36;;;;;;;1.50;1.00;;;;;;;;;;5032550;28;20799;-46
2022/09/25 14:06:03;;;;;;;4.00;1.20;;;;;;;;;;5033950;28;20460;-47
2022/09/25 14:08:31;;;;;;;3.03;1.03;;;;;;;;;;5033588;28;20465;-47
2022/09/25 14:10:58;;;;;;;2.77;1.30;;;;;;;;;;5033970;28;20410;-47
2022/09/25 14:13:25;;;;;;;1.97;0.90;;;;;;;;;;5033655;28;20409;-48
2022/09/25 14:15:55;;;;;;;1.53;1.00;;;;;;;;;;5033822;28;20407;-48
2022/09/25 14:18:21;;;;;;;2.97;0.90;;;;;;;;;;5033341;28;20841;-50
2022/09/25 14:20:49;;;;;;;1.43;0.80;;;;;;;;;;5033893;28;20504;-49
2022/09/25 14:23:22;;;;;;;1.50;0.93;;;;;;;;;;5033668;28;20421;-45
2022/09/25 14:25:56;;;;;;;2.00;1.00;;;;;;;;;;5033631;28;20500;-48
2022/09/25 14:28:24;;;;;;;6.10;1.20;;;;;;;;;;5033281;28;20998;-50
2022/09/25 14:31:10;;;;;;;1.73;0.90;;;;;;;;;;5033636;28;20402;-48
2022/09/25 14:33:54;;;;;;;2.70;1.50;;;;;;;;;;5032128;28;20436;-48
2022/09/25 14:36:26;;;;;;;1.33;0.90;;;;;;;;;;5033094;28;20883;-48
2022/09/25 14:39:12;;;;;;;2.30;1.13;;;;;;;;;;5033496;28;20406;-46
2022/09/25 14:42:15;;;;;;;1.10;0.90;;;;;;;;;;5033014;28;20814;-47
2022/09/25 14:45:02;;;;;;;1.30;1.00;;;;;;;;;;5030926;28;20564;-49
2022/09/25 14:47:32;;;;;;;3.80;1.40;;;;;;;;;;5032448;28;20430;-49
2022/09/25 14:49:58;;;;;;;1.87;1.00;;;;;;;;;;5033904;28;20421;-48
2022/09/25 14:52:27;;;;;;;4.33;1.10;;;;;;;;;;5033261;28;20394;-49
2022/09/25 14:54:54;;;;;;;2.37;0.90;;;;;;;;;;5033581;28;20448;-45
2022/09/25 14:57:24;;;;;;;5.90;1.47;;;;;;;;;;5032774;28;20421;-45
2022/09/25 14:59:52;;;;;;;1.43;0.97;;;;;;;;;;5033603;28;20509;-44
2022/09/25 15:02:23;;;;;;;1.67;1.17;;;;;;;;;;5033015;28;20471;-44
2022/09/25 15:04:50;;;;;;;2.50;1.17;;;;;;;;;;5033034;28;20504;-45
2022/09/25 15:07:17;;;;;;;4.30;0.90;;;;;;;;;;5032503;28;20414;-45
2022/09/25 15:09:47;;;;;;;1.90;1.33;;;;;;;;;;5038659;28;20419;-44
2022/09/25 15:12:25;;;;;;;2.60;1.20;;;;;;;;;;5037979;28;20488;-44
2022/09/25 15:15:11;;;;;;;2.83;1.00;;;;;;;;;;5032762;28;20518;-44
2022/09/25 15:17:43;;;;;;;1.80;1.20;;;;;;;;;;5032648;28;20998;-44
2022/09/25 15:20:13;;;;;;;9.50;1.20;;;;;;;;;;5031628;28;20716;-44
2022/09/25 15:22:39;;;;;;;2.93;1.07;;;;;;;;;;5032493;28;20407;-44
2022/09/25 15:25:07;;;;;;;3.43;1.40;;;;;;;;;;5043039;28;20449;-44